createdAt,value
2023-03-31T00:00:53.706Z,99849.31
2023-03-31T00:03:24.074Z,99851.09
2023-03-31T00:05:58.153Z,99851.09
2023-03-31T00:08:30.518Z,99842.31
2023-03-31T00:11:00.659Z,99849.34
2023-03-31T00:13:28.321Z,99857.28
2023-03-31T00:15:58.140Z,99841.44
2023-03-31T00:18:26.830Z,99839.69
2023-03-31T00:20:54.814Z,99845.84
2023-03-31T00:23:28.034Z,99837.03
2023-03-31T00:25:57.307Z,99828.22
2023-03-31T00:28:25.031Z,99831.75
2023-03-31T00:30:53.501Z,99827.31
2023-03-31T00:33:21.828Z,99822.00
2023-03-31T00:35:52.743Z,99815.84
2023-03-31T00:38:21.962Z,99816.72
2023-03-31T00:40:53.319Z,99819.34
2023-03-31T00:43:34.061Z,99808.75
2023-03-31T00:46:15.629Z,99816.63
2023-03-31T00:48:49.578Z,99806.03
2023-03-31T00:51:17.460Z,99808.66
2023-03-31T00:53:47.078Z,99802.50
2023-03-31T00:56:17.246Z,99798.94
2023-03-31T00:58:47.358Z,99808.66
2023-03-31T01:01:19.308Z,99804.22
2023-03-31T01:03:48.405Z,99793.63
2023-03-31T01:06:19.960Z,99797.16
2023-03-31T01:08:50.088Z,99790.06
2023-03-31T01:11:21.014Z,99783.91
2023-03-31T01:13:56.201Z,99786.56
2023-03-31T01:16:24.432Z,99778.66
2023-03-31T01:18:52.135Z,99781.31
2023-03-31T01:21:59.875Z,99782.19
2023-03-31T01:25:15.445Z,99775.16
2023-03-31T01:27:57.844Z,99772.53
2023-03-31T01:31:01.667Z,99767.28
2023-03-31T01:34:01.073Z,99764.66
2023-03-31T01:37:07.891Z,99761.16
2023-03-31T01:40:00.709Z,99765.59
2023-03-31T01:42:35.929Z,99747.09
2023-03-31T01:45:17.286Z,99751.53
2023-03-31T01:47:51.037Z,99750.63
2023-03-31T01:50:26.758Z,99740.03
2023-03-31T01:53:00.626Z,99748.00
2023-03-31T01:55:35.775Z,99736.53
2023-03-31T01:58:09.464Z,99739.22
2023-03-31T02:00:42.154Z,99740.13
2023-03-31T02:03:17.054Z,99728.69
2023-03-31T02:05:48.422Z,99725.16
2023-03-31T02:08:21.537Z,99719.84
2023-03-31T02:10:52.453Z,99717.28
2023-03-31T02:13:21.835Z,99722.59
2023-03-31T02:15:55.678Z,99716.44
2023-03-31T02:18:27.121Z,99717.31
2023-03-31T02:20:57.472Z,99710.31
2023-03-31T02:23:29.614Z,99714.75
2023-03-31T02:26:03.921Z,99705.97
2023-03-31T02:28:32.437Z,99701.56
2023-03-31T02:31:09.340Z,99699.84
2023-03-31T02:33:37.055Z,99698.94
2023-03-31T02:36:07.713Z,99686.66
2023-03-31T02:38:40.758Z,99676.97
2023-03-31T02:41:11.043Z,99676.97
2023-03-31T02:43:38.756Z,99677.84
2023-03-31T02:46:09.809Z,99684.00
2023-03-31T02:48:41.091Z,99676.09
2023-03-31T02:51:59.006Z,99669.03
2023-03-31T02:54:46.499Z,99664.66
2023-03-31T02:57:50.129Z,99655.84
2023-03-31T03:00:28.688Z,99645.28
2023-03-31T03:03:14.396Z,99639.13
2023-03-31T03:05:50.685Z,99632.97
2023-03-31T03:08:55.542Z,99635.63
2023-03-31T03:11:30.922Z,99632.09
2023-03-31T03:14:07.649Z,99625.94
2023-03-31T03:16:41.407Z,99620.66
2023-03-31T03:19:09.453Z,99609.19
2023-03-31T03:21:37.058Z,99607.47
2023-03-31T03:24:04.746Z,99611.91
2023-03-31T03:26:35.232Z,99610.16
2023-03-31T03:29:04.325Z,99600.50
2023-03-31T03:31:33.595Z,99610.16
2023-03-31T03:34:01.772Z,99603.16
2023-03-31T03:36:29.429Z,99590.81
2023-03-31T03:38:57.105Z,99587.31
2023-03-31T03:41:24.848Z,99597.91
2023-03-31T03:43:52.452Z,99589.97
2023-03-31T03:46:21.462Z,99590.88
2023-03-31T03:48:49.163Z,99588.25
2023-03-31T03:51:17.029Z,99583.00
2023-03-31T03:53:44.776Z,99584.75
2023-03-31T03:56:12.417Z,99578.56
2023-03-31T03:58:40.092Z,99577.69
2023-03-31T04:01:08.053Z,99571.50
2023-03-31T04:03:37.058Z,99570.63
2023-03-31T04:06:05.068Z,99556.53
2023-03-31T04:08:32.898Z,99560.91
2023-03-31T04:11:00.486Z,99554.75
2023-03-31T04:13:28.265Z,99545.91
2023-03-31T04:15:56.020Z,99550.31
2023-03-31T04:18:23.937Z,99545.00
2023-03-31T04:21:03.960Z,99537.91
2023-03-31T04:23:32.495Z,99529.06
2023-03-31T04:26:04.229Z,99525.53
2023-03-31T04:28:35.299Z,99524.59
2023-03-31T04:31:04.314Z,99522.78
2023-03-31T04:33:38.656Z,99513.91
2023-03-31T04:36:17.684Z,99510.41
2023-03-31T04:38:57.392Z,99511.25
2023-03-31T04:41:27.609Z,99512.13
2023-03-31T04:43:55.541Z,99500.69
2023-03-31T04:46:23.439Z,99493.63
2023-03-31T04:48:51.797Z,99490.13
2023-03-31T04:51:21.337Z,99474.28
2023-03-31T04:53:51.000Z,99480.44
2023-03-31T04:56:19.325Z,99468.97
2023-03-31T04:58:47.675Z,99467.22
2023-03-31T05:01:18.384Z,99463.69
2023-03-31T05:03:48.091Z,99462.84
2023-03-31T05:06:16.578Z,99459.34
2023-03-31T05:08:46.180Z,99461.13
2023-03-31T05:11:14.173Z,99451.44
2023-03-31T05:13:42.044Z,99446.16
2023-03-31T05:16:12.398Z,99432.97
2023-03-31T05:18:40.377Z,99421.56
2023-03-31T05:21:13.589Z,99421.56
2023-03-31T05:23:43.026Z,99416.31
2023-03-31T05:26:15.106Z,99404.03
2023-03-31T05:28:45.091Z,99409.34
2023-03-31T05:31:14.363Z,99411.13
2023-03-31T05:33:42.502Z,99405.00
2023-03-31T05:36:19.486Z,99398.81
2023-03-31T05:38:47.854Z,99399.69
2023-03-31T05:41:17.206Z,99390.84
2023-03-31T05:43:44.981Z,99391.69
2023-03-31T05:46:12.866Z,99390.81
2023-03-31T05:48:41.362Z,99391.66
2023-03-31T05:51:09.494Z,99381.88
2023-03-31T05:53:38.056Z,99381.84
2023-03-31T05:56:08.360Z,99379.13
2023-03-31T05:58:41.449Z,99369.31
2023-03-31T06:01:11.272Z,99364.84
2023-03-31T06:03:42.396Z,99362.09
2023-03-31T06:06:13.305Z,99356.69
2023-03-31T06:08:41.570Z,99354.81
2023-03-31T06:11:12.801Z,99346.69
2023-03-31T06:13:42.373Z,99348.31
2023-03-31T06:16:12.373Z,99353.47
2023-03-31T06:18:40.749Z,99356.81
2023-03-31T06:21:09.409Z,99348.69
2023-03-31T06:23:37.278Z,99349.44
2023-03-31T06:26:08.432Z,99344.03
2023-03-31T06:28:37.457Z,99356.22
2023-03-31T06:31:07.978Z,99353.41
2023-03-31T06:33:37.491Z,99339.25
2023-03-31T06:36:06.944Z,99351.47
2023-03-31T06:38:38.371Z,99339.03
2023-03-31T06:41:06.523Z,99347.75
2023-03-31T06:43:34.980Z,99347.72
2023-03-31T06:46:02.888Z,99356.47
2023-03-31T06:48:32.021Z,99357.28
2023-03-31T06:51:01.556Z,99356.34
2023-03-31T06:53:29.645Z,99347.44
2023-03-31T06:55:57.600Z,99343.81
2023-03-31T06:58:25.609Z,99341.97
2023-03-31T07:00:53.770Z,99337.47
2023-03-31T07:03:25.136Z,99347.16
2023-03-31T07:05:56.630Z,99337.34
2023-03-31T07:08:25.052Z,99330.19
2023-03-31T07:10:57.830Z,99326.56
2023-03-31T07:13:26.543Z,99304.44
2023-03-31T07:15:55.045Z,99288.47
2023-03-31T07:18:26.613Z,99282.19
2023-03-31T07:20:55.570Z,99280.31
2023-03-31T07:23:23.173Z,99281.16
2023-03-31T07:25:50.984Z,99293.44
2023-03-31T07:28:18.679Z,99281.84
2023-03-31T07:30:46.638Z,99290.59
2023-03-31T07:33:14.350Z,99282.53
2023-03-31T07:35:42.946Z,99280.63
2023-03-31T07:38:12.856Z,99288.47
2023-03-31T07:40:42.711Z,99289.22
2023-03-31T07:43:10.486Z,99293.41
2023-03-31T07:45:40.313Z,99297.69
2023-03-31T07:48:08.421Z,99291.31
2023-03-31T07:50:36.418Z,99292.03
2023-03-31T07:53:07.647Z,99285.72
2023-03-31T07:55:36.656Z,99283.78
2023-03-31T07:58:04.300Z,99286.31
2023-03-31T08:00:32.204Z,99283.56
2023-03-31T08:02:59.842Z,99279.91
2023-03-31T08:05:28.972Z,99272.72
2023-03-31T08:07:56.598Z,99260.22
2023-03-31T08:10:26.913Z,99265.47
2023-03-31T08:12:56.395Z,99261.88
2023-03-31T08:15:24.620Z,99254.75
2023-03-31T08:17:52.545Z,99261.75
2023-03-31T08:20:20.484Z,99251.13
2023-03-31T08:22:48.136Z,99249.34
2023-03-31T08:25:16.349Z,99243.09
2023-03-31T08:27:44.064Z,99244.88
2023-03-31T08:30:14.383Z,99252.88
2023-03-31T08:32:42.078Z,99250.28
2023-03-31T08:35:09.929Z,99252.09
2023-03-31T08:37:37.597Z,99243.34
2023-03-31T08:40:09.638Z,99244.25
2023-03-31T08:42:43.530Z,99238.09
2023-03-31T08:45:21.915Z,99235.47
2023-03-31T08:47:53.607Z,99236.31
2023-03-31T08:50:25.942Z,99217.81
2023-03-31T08:53:03.994Z,99211.63
2023-03-31T08:55:41.226Z,99205.38
2023-03-31T08:58:14.694Z,99203.50
2023-03-31T09:00:50.627Z,99195.34
2023-03-31T09:03:26.082Z,99189.94
2023-03-31T09:06:02.603Z,99185.34
2023-03-31T09:08:35.323Z,99179.97
2023-03-31T09:11:11.962Z,99176.19
2023-03-31T09:14:00.862Z,99162.50
2023-03-31T09:16:36.646Z,99155.91
2023-03-31T09:19:04.960Z,99163.38
2023-03-31T09:21:34.917Z,99169.06
2023-03-31T09:24:09.471Z,99148.50
2023-03-31T09:26:42.353Z,99152.78
2023-03-31T09:29:18.657Z,99142.88
2023-03-31T09:31:48.411Z,99141.78
2023-03-31T09:34:20.334Z,99142.34
2023-03-31T09:36:47.958Z,99132.13
2023-03-31T09:39:16.613Z,99122.09
2023-03-31T09:41:46.881Z,99129.84
2023-03-31T09:44:24.432Z,99113.72
2023-03-31T09:46:54.279Z,99132.31
2023-03-31T09:49:24.062Z,99122.75
2023-03-31T09:52:03.119Z,99121.13
2023-03-31T09:54:40.025Z,99114.13
2023-03-31T09:57:16.263Z,99113.31
2023-03-31T09:59:45.884Z,99092.97
2023-03-31T10:02:34.973Z,99098.19
2023-03-31T10:05:03.158Z,99091.19
2023-03-31T10:07:31.409Z,99096.72
2023-03-31T10:09:59.134Z,99091.50
2023-03-31T10:12:29.858Z,99086.38
2023-03-31T10:15:13.004Z,99083.84
2023-03-31T10:17:54.925Z,99092.78
2023-03-31T10:20:33.436Z,99089.38
2023-03-31T10:23:06.298Z,99078.03
2023-03-31T10:25:35.624Z,99084.34
2023-03-31T10:28:04.489Z,99080.78
2023-03-31T10:30:37.934Z,99079.13
2023-03-31T10:33:22.613Z,99080.84
2023-03-31T10:35:55.751Z,99077.47
2023-03-31T10:38:27.504Z,99072.28
2023-03-31T10:40:57.501Z,99077.78
2023-03-31T10:43:28.173Z,99070.84
2023-03-31T10:45:57.215Z,99073.69
2023-03-31T10:48:29.215Z,99067.66
2023-03-31T10:51:01.165Z,99068.72
2023-03-31T10:53:28.882Z,99060.94
2023-03-31T10:56:15.554Z,99063.88
2023-03-31T10:59:06.351Z,99059.81
2023-03-31T11:01:45.734Z,99064.56
2023-03-31T11:04:45.561Z,99061.31
2023-03-31T11:07:23.597Z,99067.69
2023-03-31T11:10:02.863Z,99052.09
2023-03-31T11:12:38.158Z,99053.19
2023-03-31T11:15:17.137Z,99045.41
2023-03-31T11:18:02.390Z,99050.84
2023-03-31T11:20:39.857Z,99055.41
2023-03-31T11:23:19.306Z,99053.88
2023-03-31T11:25:53.534Z,99051.56
2023-03-31T11:28:37.218Z,99058.91
2023-03-31T11:31:18.461Z,99056.38
2023-03-31T11:33:58.592Z,99059.25
2023-03-31T11:36:39.383Z,99056.75
2023-03-31T11:39:23.571Z,99052.44
2023-03-31T11:41:53.125Z,99055.19
2023-03-31T11:44:24.513Z,99051.72
2023-03-31T11:46:56.482Z,99048.25
2023-03-31T11:49:27.803Z,99048.28
2023-03-31T11:51:59.701Z,99043.94
2023-03-31T11:54:32.458Z,99043.19
2023-03-31T11:57:03.941Z,99038.00
2023-03-31T11:59:33.746Z,99038.06
2023-03-31T12:02:11.475Z,99031.88
2023-03-31T12:04:42.138Z,99037.22
2023-03-31T12:07:23.814Z,99034.63
2023-03-31T12:09:56.360Z,99040.00
2023-03-31T12:12:28.921Z,99027.69
2023-03-31T12:15:03.886Z,99032.22
2023-03-31T12:17:33.113Z,99028.78
2023-03-31T12:20:07.310Z,99028.84
2023-03-31T12:22:41.062Z,99025.41
2023-03-31T12:25:14.970Z,99021.84
2023-03-31T12:27:44.917Z,99014.88
2023-03-31T12:30:15.928Z,99018.44
2023-03-31T12:32:48.968Z,99014.97
2023-03-31T12:35:23.452Z,99012.41
2023-03-31T12:38:17.761Z,99010.69
2023-03-31T12:40:57.066Z,98999.25
2023-03-31T12:43:48.800Z,98994.84
2023-03-31T12:46:34.846Z,99001.91
2023-03-31T12:49:17.275Z,99002.72
2023-03-31T12:52:04.237Z,98984.16
2023-03-31T12:54:58.730Z,98985.06
2023-03-31T12:57:28.043Z,98972.69
2023-03-31T13:00:22.773Z,98974.41
2023-03-31T13:02:52.780Z,98969.03
2023-03-31T13:05:48.275Z,98968.13
2023-03-31T13:08:52.250Z,98971.53
2023-03-31T13:11:23.195Z,98966.97
2023-03-31T13:14:02.334Z,98965.94
2023-03-31T13:16:31.545Z,98964.88
2023-03-31T13:19:03.001Z,98970.03
2023-03-31T13:21:31.086Z,98957.53
2023-03-31T13:24:02.072Z,98962.75
2023-03-31T13:26:48.292Z,98952.03
2023-03-31T13:29:25.845Z,98946.56
2023-03-31T13:32:20.904Z,98949.13
2023-03-31T13:34:55.477Z,98946.53
2023-03-31T13:37:45.693Z,98947.34
2023-03-31T13:40:37.379Z,98947.22
2023-03-31T13:43:30.324Z,98944.53
2023-03-31T13:46:17.816Z,98940.03
2023-03-31T13:48:54.663Z,98934.63
2023-03-31T13:51:49.048Z,98933.59
2023-03-31T13:54:44.336Z,98933.50
2023-03-31T13:57:50.895Z,98936.09
2023-03-31T14:00:31.719Z,98939.59
2023-03-31T14:03:38.882Z,98941.34
2023-03-31T14:06:18.318Z,98935.00
2023-03-31T14:08:52.635Z,98930.34
2023-03-31T14:11:25.228Z,98930.13
2023-03-31T14:14:04.198Z,98928.97
2023-03-31T14:16:38.774Z,98932.22
2023-03-31T14:19:30.509Z,98927.47
2023-03-31T14:22:07.001Z,98924.63
2023-03-31T14:24:40.573Z,98920.03
2023-03-31T14:27:20.284Z,98917.34
2023-03-31T14:29:55.818Z,98911.00
2023-03-31T14:32:35.103Z,98903.69
2023-03-31T14:35:18.679Z,98904.41
2023-03-31T14:37:46.643Z,98892.03
2023-03-31T14:40:18.360Z,98897.44
2023-03-31T14:42:50.040Z,98904.66
2023-03-31T14:45:22.033Z,98902.22
2023-03-31T14:47:59.680Z,98892.63
2023-03-31T14:50:32.734Z,98887.50
2023-03-31T14:53:01.472Z,98887.41
2023-03-31T14:55:54.302Z,98883.81
2023-03-31T14:58:26.162Z,98886.47
2023-03-31T15:00:56.056Z,98878.53
2023-03-31T15:03:27.643Z,98883.91
2023-03-31T15:06:00.760Z,98887.50
2023-03-31T15:08:30.219Z,98892.91
2023-03-31T15:11:11.752Z,98889.47
2023-03-31T15:13:46.817Z,98884.25
2023-03-31T15:16:26.271Z,98884.34
2023-03-31T15:18:56.250Z,98876.47
2023-03-31T15:21:37.284Z,98869.47
2023-03-31T15:24:14.275Z,98867.75
2023-03-31T15:26:49.493Z,98853.72
2023-03-31T15:29:24.215Z,98858.22
2023-03-31T15:32:21.457Z,98855.59
2023-03-31T15:35:18.874Z,98848.56
2023-03-31T15:38:07.003Z,98850.28
2023-03-31T15:40:47.001Z,98852.94
2023-03-31T15:43:38.719Z,98852.94
2023-03-31T15:46:07.583Z,98857.31
2023-03-31T15:48:59.779Z,98860.78
2023-03-31T15:51:37.754Z,98864.19
2023-03-31T15:54:34.296Z,98865.00
2023-03-31T15:57:19.363Z,98866.75
2023-03-31T15:59:55.861Z,98872.06
2023-03-31T16:02:37.240Z,98877.38
2023-03-31T16:05:32.249Z,98882.63
2023-03-31T16:08:21.873Z,98899.47
2023-03-31T16:11:14.661Z,98901.28
2023-03-31T16:13:46.303Z,98896.88
2023-03-31T16:16:23.334Z,98897.88
2023-03-31T16:18:53.131Z,98899.81
2023-03-31T16:21:29.907Z,98892.97
2023-03-31T16:24:01.528Z,98887.84
2023-03-31T16:26:30.481Z,98884.47
2023-03-31T16:28:58.720Z,98870.56
2023-03-31T16:31:35.694Z,98871.53
2023-03-31T16:34:06.374Z,98864.75
2023-03-31T16:36:34.452Z,98859.56
2023-03-31T16:39:05.193Z,98865.03
2023-03-31T16:41:34.444Z,98873.03
2023-03-31T16:44:02.833Z,98869.53
2023-03-31T16:46:31.032Z,98873.16
2023-03-31T16:48:58.898Z,98878.47
2023-03-31T16:51:26.814Z,98888.25
2023-03-31T16:53:56.870Z,98879.44
2023-03-31T16:56:28.351Z,98883.88
2023-03-31T16:58:56.451Z,98883.06
2023-03-31T17:01:24.239Z,98882.31
2023-03-31T17:03:52.337Z,98876.16
2023-03-31T17:06:20.540Z,98873.59
2023-03-31T17:08:48.309Z,98876.38
2023-03-31T17:11:16.163Z,98872.09
2023-03-31T17:13:46.612Z,98860.84
2023-03-31T17:16:19.269Z,98862.63
2023-03-31T17:18:54.987Z,98872.50
2023-03-31T17:21:26.265Z,98863.75
2023-03-31T17:23:54.706Z,98855.06
2023-03-31T17:26:22.850Z,98856.97
2023-03-31T17:28:52.347Z,98850.94
2023-03-31T17:31:22.238Z,98858.97
2023-03-31T17:33:50.225Z,98856.50
2023-03-31T17:36:18.485Z,98863.72
2023-03-31T17:38:46.369Z,98863.84
2023-03-31T17:41:15.657Z,98861.38
2023-03-31T17:43:45.603Z,98866.81
2023-03-31T17:46:15.507Z,98862.53
2023-03-31T17:48:43.775Z,98865.28
2023-03-31T17:51:15.134Z,98862.75
2023-03-31T17:53:45.103Z,98874.41
2023-03-31T17:56:14.017Z,98873.69
2023-03-31T17:58:42.502Z,98878.22
2023-03-31T18:01:12.203Z,98884.56
2023-03-31T18:03:42.242Z,98891.72
2023-03-31T18:06:12.645Z,98889.16
2023-03-31T18:08:41.907Z,98884.75
2023-03-31T18:11:10.764Z,98902.44
2023-03-31T18:13:39.200Z,98889.28
2023-03-31T18:16:09.809Z,98885.81
2023-03-31T18:18:38.165Z,98895.59
2023-03-31T18:21:09.065Z,98885.91
2023-03-31T18:23:37.264Z,98889.47
2023-03-31T18:26:07.469Z,98893.94
2023-03-31T18:28:35.292Z,98898.34
2023-03-31T18:31:04.157Z,98907.22
2023-03-31T18:33:31.992Z,98893.97
2023-03-31T18:35:59.827Z,98900.19
2023-03-31T18:38:29.282Z,98902.00
2023-03-31T18:40:57.738Z,98909.94
2023-03-31T18:43:26.308Z,98906.47
2023-03-31T18:45:58.650Z,98906.50
2023-03-31T18:48:26.532Z,98918.88
2023-03-31T18:50:54.656Z,98906.53
2023-03-31T18:53:23.508Z,98914.50
2023-03-31T18:55:53.937Z,98911.84
2023-03-31T18:58:21.780Z,98917.16
2023-03-31T19:00:49.594Z,98913.63
2023-03-31T19:03:17.607Z,98922.44
2023-03-31T19:05:45.836Z,98926.84
2023-03-31T19:08:13.867Z,98932.13
2023-03-31T19:10:41.739Z,98926.84
2023-03-31T19:13:15.279Z,98936.53
2023-03-31T19:15:43.089Z,98933.88
2023-03-31T19:18:14.759Z,98932.09
2023-03-31T19:20:43.171Z,98923.25
2023-03-31T19:23:11.016Z,98932.97
2023-03-31T19:25:38.797Z,98917.97
2023-03-31T19:28:07.122Z,98934.75
2023-03-31T19:30:36.334Z,98925.88
2023-03-31T19:33:04.160Z,98918.84
2023-03-31T19:35:32.156Z,98926.78
2023-03-31T19:38:00.191Z,98923.19
2023-03-31T19:40:27.935Z,98918.84
2023-03-31T19:42:55.557Z,98923.22
2023-03-31T19:45:23.170Z,98924.06
2023-03-31T19:47:52.255Z,98924.06
2023-03-31T19:50:19.874Z,98919.69
2023-03-31T19:52:49.702Z,98919.69
2023-03-31T19:55:17.674Z,98915.28
2023-03-31T19:57:45.296Z,98907.34
2023-03-31T20:00:13.774Z,98913.53
2023-03-31T20:02:41.683Z,98911.78
2023-03-31T20:05:11.184Z,98916.22
2023-03-31T20:07:38.843Z,98919.72
2023-03-31T20:10:07.903Z,98917.09
2023-03-31T20:12:36.612Z,98904.75
2023-03-31T20:15:04.513Z,98910.06
2023-03-31T20:17:32.106Z,98907.44
2023-03-31T20:19:59.772Z,98911.00
2023-03-31T20:22:28.711Z,98913.66
2023-03-31T20:24:56.287Z,98912.84
2023-03-31T20:27:26.373Z,98918.13
2023-03-31T20:29:54.053Z,98911.13
2023-03-31T20:32:22.312Z,98920.88
2023-03-31T20:34:49.970Z,98920.00
2023-03-31T20:37:18.265Z,98918.28
2023-03-31T20:39:48.504Z,98922.75
2023-03-31T20:42:16.697Z,98923.63
2023-03-31T20:44:44.331Z,98912.19
2023-03-31T20:47:11.922Z,98917.44
2023-03-31T20:49:39.525Z,98920.94
2023-03-31T20:52:07.136Z,98924.50
2023-03-31T20:54:34.984Z,98928.84
2023-03-31T20:57:05.823Z,98923.56
2023-03-31T20:59:33.942Z,98918.28
2023-03-31T21:02:02.299Z,98926.19
2023-03-31T21:04:29.955Z,98915.59
2023-03-31T21:06:57.536Z,98928.81
2023-03-31T21:09:25.131Z,98927.88
2023-03-31T21:11:52.848Z,98922.53
2023-03-31T21:14:21.828Z,98919.00
2023-03-31T21:16:49.414Z,98916.28
2023-03-31T21:19:17.032Z,98916.25
2023-03-31T21:21:44.628Z,98921.50
2023-03-31T21:24:13.501Z,98917.91
2023-03-31T21:26:41.559Z,98925.84
2023-03-31T21:29:09.299Z,98924.03
2023-03-31T21:31:38.475Z,98920.50
2023-03-31T21:34:06.284Z,98925.75
2023-03-31T21:36:34.069Z,98930.13
2023-03-31T21:39:02.266Z,98928.38
2023-03-31T21:41:31.296Z,98923.09
2023-03-31T21:44:02.398Z,98921.28
2023-03-31T21:46:32.686Z,98928.38
2023-03-31T21:49:02.622Z,98930.13
2023-03-31T21:51:30.724Z,98921.31
2023-03-31T21:53:58.483Z,98923.16
2023-03-31T21:56:28.281Z,98923.16
2023-03-31T21:58:59.824Z,98931.09
2023-03-31T22:01:27.709Z,98934.63
2023-03-31T22:03:55.450Z,98938.19
2023-03-31T22:06:24.408Z,98927.63
2023-03-31T22:08:52.015Z,98932.94
2023-03-31T22:11:19.874Z,98939.09
2023-03-31T22:13:47.934Z,98937.34
2023-03-31T22:16:18.641Z,98937.34
2023-03-31T22:18:47.007Z,98937.34
2023-03-31T22:21:17.035Z,98944.41
2023-03-31T22:23:46.112Z,98939.09
2023-03-31T22:26:14.068Z,98942.66
2023-03-31T22:28:41.755Z,98940.91
2023-03-31T22:31:09.512Z,98941.75
2023-03-31T22:33:37.180Z,98936.50
2023-03-31T22:36:05.546Z,98940.03
2023-03-31T22:38:33.214Z,98944.44
2023-03-31T22:41:02.308Z,98945.31
2023-03-31T22:43:30.037Z,98949.72
2023-03-31T22:45:57.634Z,98948.00
2023-03-31T22:48:25.361Z,98943.59
2023-03-31T22:50:52.946Z,98948.88
2023-03-31T22:53:22.343Z,98947.16
2023-03-31T22:55:53.822Z,98948.88
2023-03-31T22:58:23.602Z,98947.19
2023-03-31T23:00:57.202Z,98963.03
2023-03-31T23:03:25.520Z,98948.06
2023-03-31T23:05:53.465Z,98952.47
2023-03-31T23:08:21.434Z,98948.91
2023-03-31T23:10:55.716Z,98955.09
2023-03-31T23:13:25.458Z,98955.09
2023-03-31T23:15:53.170Z,98952.47
2023-03-31T23:18:21.975Z,98952.47
2023-03-31T23:20:49.859Z,98959.47
2023-03-31T23:23:17.584Z,98951.53
2023-03-31T23:25:45.349Z,98957.69
2023-03-31T23:28:12.961Z,98957.69
2023-03-31T23:30:42.106Z,98960.31
2023-03-31T23:33:10.076Z,98959.44
2023-03-31T23:35:37.836Z,98954.16
2023-03-31T23:38:05.578Z,98947.06
2023-03-31T23:40:33.166Z,98955.91
2023-03-31T23:43:00.860Z,98948.84
2023-03-31T23:45:28.436Z,98943.56
2023-03-31T23:47:57.406Z,98951.50
2023-03-31T23:50:25.089Z,98948.00
2023-03-31T23:52:52.867Z,98952.38
2023-03-31T23:55:20.701Z,98947.09
2023-03-31T23:57:48.353Z,98944.47
